Главная страница
METAR-TAF:

METAR-TAF

Аэропорты :

Гран-Канария, Испания

широта: 27-56N, долгота: 015-23W, высота над уровнем моря: 23 м

Текущие метеонаблюдения

Эта сводка был подготовлена 30 минут назад, в 05:30 UTC
Ветер 8 Узел от северный
Температура 19°C
Влажность 78%
Давление 1017 hPa
Видимость 10 км и более
небольшая облачность на высоте 2000 фута

METAR: GCLP 250530Z 36008KT 9999 FEW020 19/15 Q1017 NOSIG

Время: 07:00 (06:00 UTC)

Прогноз

Эта сводка был подготовлена 4 часа и 0 минут назад, в 02:00 UTC
Прогноз действительный с 25-го 03 UTC до 26-го 03 UTC
Ветер 12 Узел от северный
Видимость 10 км и более
небольшая облачность на высоте 2500 фута
Вероятность 30% :
временами
С 25-го 12 UTC до 25-го 21 UTC
Ветер 15 Узел от северный с порывами до 25 Узел

TAF: GCLP 250200Z 2503/2603 36012KT 9999 FEW025 TX26/2514Z TN19/2505Z PROB30 TEMPO 2512/2521 01015G25KT

Метеонаблюдения и прогнозы для более 4000 аэропортов (сводки METAR и TAF).

Имеющиеся станции представлены на карте желтыми и красными точками.

Чтобы увидеть название станции, наведите на нее мышь.

Затем щелкните, чтобы увидеть метеонаблюдения и метеопрогнозы.

Управление картой: чтобы увеличить масштаб, щелкните зеленые кнопки с черным крестиком; чтобы уменьшить масштаб, щелкните зеленую кнопку с тире; для просмотра соседних карт щелкайте зеленые стрелки.


METAR-TAF: